createdAt,value
2018-08-09T00:02:26.954Z,20.46
2018-08-09T00:04:57.692Z,20.46
2018-08-09T00:07:28.483Z,20.48
2018-08-09T00:09:59.160Z,20.43
2018-08-09T00:12:29.911Z,20.40
2018-08-09T00:15:00.669Z,20.40
2018-08-09T00:17:31.480Z,20.42
2018-08-09T00:20:02.266Z,20.37
2018-08-09T00:22:32.972Z,20.34
2018-08-09T00:25:03.885Z,20.31
2018-08-09T00:27:34.955Z,20.28
2018-08-09T00:30:07.673Z,20.28
2018-08-09T00:32:38.524Z,20.24
2018-08-09T00:35:09.497Z,20.22
2018-08-09T00:37:40.344Z,20.30
2018-08-09T00:40:11.118Z,20.32
2018-08-09T00:42:41.859Z,20.28
2018-08-09T00:45:12.634Z,20.31
2018-08-09T00:47:43.401Z,20.32
2018-08-09T00:50:14.165Z,20.29
2018-08-09T00:52:45.014Z,20.31
2018-08-09T00:55:15.892Z,20.29
2018-08-09T00:57:46.620Z,20.28
2018-08-09T01:00:17.482Z,20.26
2018-08-09T01:02:48.243Z,20.27
2018-08-09T01:05:18.974Z,20.28
2018-08-09T01:07:49.677Z,20.27
2018-08-09T01:10:20.416Z,20.23
2018-08-09T01:12:51.184Z,20.25
2018-08-09T01:15:21.993Z,20.20
2018-08-09T01:17:52.689Z,20.20
2018-08-09T01:20:23.515Z,20.16
2018-08-09T01:22:54.470Z,20.09
2018-08-09T01:25:25.335Z,20.10
2018-08-09T01:27:56.038Z,20.10
2018-08-09T01:30:26.858Z,20.09
2018-08-09T01:32:57.724Z,20.11
2018-08-09T01:35:28.425Z,20.12
2018-08-09T01:37:59.155Z,20.10
2018-08-09T01:40:29.878Z,20.08
2018-08-09T01:43:17.328Z,20.00
2018-08-09T01:45:48.052Z,19.99
2018-08-09T01:48:18.796Z,19.94
2018-08-09T01:50:49.516Z,19.89
2018-08-09T01:53:20.255Z,19.87
2018-08-09T01:55:50.995Z,19.89
2018-08-09T01:58:21.700Z,19.89
2018-08-09T02:00:52.454Z,19.92
2018-08-09T02:03:23.212Z,19.93
2018-08-09T02:05:53.922Z,19.89
2018-08-09T02:08:24.683Z,19.80
2018-08-09T02:10:55.422Z,19.80
2018-08-09T02:13:26.210Z,19.77
2018-08-09T02:15:56.921Z,19.66
2018-08-09T02:18:27.755Z,19.65
2018-08-09T02:20:58.543Z,19.66
2018-08-09T02:23:29.286Z,19.61
2018-08-09T02:26:00.047Z,19.42
2018-08-09T02:28:30.772Z,19.36
2018-08-09T02:31:01.695Z,19.29
2018-08-09T02:33:32.474Z,19.33
2018-08-09T02:36:03.357Z,19.24
2018-08-09T02:38:34.031Z,19.20
2018-08-09T02:41:04.762Z,19.22
2018-08-09T02:43:35.467Z,19.22
2018-08-09T02:46:06.277Z,19.26
2018-08-09T02:48:37.021Z,19.27
2018-08-09T02:51:07.738Z,19.19
2018-08-09T02:53:38.510Z,19.10
2018-08-09T02:56:09.185Z,19.03
2018-08-09T02:58:39.925Z,18.94
2018-08-09T03:01:10.619Z,19.00
2018-08-09T03:03:41.347Z,19.03
2018-08-09T03:06:12.120Z,19.04
2018-08-09T03:08:42.945Z,19.01
2018-08-09T03:11:13.765Z,19.06
2018-08-09T03:13:44.493Z,19.10
2018-08-09T03:16:15.204Z,19.25
2018-08-09T03:18:45.957Z,19.20
2018-08-09T03:21:16.679Z,19.19
2018-08-09T03:23:47.443Z,19.12
2018-08-09T03:26:18.208Z,19.10
2018-08-09T03:28:48.923Z,19.04
2018-08-09T03:31:19.693Z,19.04
2018-08-09T03:33:50.487Z,19.03
2018-08-09T03:36:21.258Z,19.03
2018-08-09T03:38:52.036Z,19.01
2018-08-09T03:41:22.759Z,19.01
2018-08-09T03:43:53.469Z,19.02
2018-08-09T03:46:24.229Z,18.96
2018-08-09T03:48:55.058Z,18.89
2018-08-09T03:51:25.757Z,18.85
2018-08-09T03:53:56.560Z,18.86
2018-08-09T03:56:27.331Z,18.83
2018-08-09T03:58:58.132Z,18.77
2018-08-09T04:01:28.944Z,18.81
2018-08-09T04:03:59.665Z,18.93
2018-08-09T04:06:30.363Z,18.98
2018-08-09T04:09:01.123Z,19.04
2018-08-09T04:11:31.911Z,19.04
2018-08-09T04:14:02.685Z,19.09
2018-08-09T04:16:33.467Z,19.03
2018-08-09T04:19:04.308Z,19.05
2018-08-09T04:21:35.094Z,19.13
2018-08-09T04:24:05.957Z,19.27
2018-08-09T04:26:36.706Z,19.24
2018-08-09T04:29:07.471Z,19.34
2018-08-09T04:31:38.256Z,19.39
2018-08-09T04:34:08.962Z,19.37
2018-08-09T04:36:39.744Z,19.45
2018-08-09T04:39:10.624Z,19.57
2018-08-09T04:41:41.410Z,19.62
2018-08-09T04:44:12.153Z,19.61
2018-08-09T04:46:42.890Z,19.66
2018-08-09T04:49:13.632Z,19.68
2018-08-09T04:51:44.412Z,19.73
2018-08-09T04:54:15.126Z,19.84
2018-08-09T04:56:45.899Z,19.85
2018-08-09T04:59:16.681Z,19.95
2018-08-09T05:01:47.481Z,20.01
2018-08-09T05:04:18.259Z,20.02
2018-08-09T05:06:49.140Z,20.01
2018-08-09T05:09:19.904Z,20.00
2018-08-09T05:11:50.640Z,20.05
2018-08-09T05:14:21.384Z,20.14
2018-08-09T05:16:52.173Z,20.21
2018-08-09T05:19:22.969Z,20.20
2018-08-09T05:21:53.698Z,20.19
2018-08-09T05:24:24.506Z,20.19
2018-08-09T05:26:55.240Z,20.20
2018-08-09T05:29:25.998Z,20.23
2018-08-09T05:31:56.760Z,20.23
2018-08-09T05:34:27.483Z,20.28
2018-08-09T05:36:58.278Z,20.31
2018-08-09T05:39:29.195Z,20.40
2018-08-09T05:41:59.890Z,20.41
2018-08-09T05:44:30.645Z,20.39
2018-08-09T05:47:01.610Z,20.41
2018-08-09T05:49:32.537Z,20.36
2018-08-09T05:52:03.286Z,20.31
2018-08-09T05:54:34.018Z,20.33
2018-08-09T05:57:04.775Z,20.29
2018-08-09T05:59:35.487Z,20.36
2018-08-09T06:02:06.482Z,20.36
2018-08-09T06:04:37.185Z,20.39
2018-08-09T06:07:07.929Z,20.42
2018-08-09T06:09:38.677Z,20.47
2018-08-09T06:12:09.401Z,20.58
2018-08-09T06:14:40.187Z,20.61
2018-08-09T06:17:10.888Z,20.74
2018-08-09T06:19:41.609Z,20.75
2018-08-09T06:22:12.411Z,20.87
2018-08-09T06:24:43.273Z,20.96
2018-08-09T06:27:14.024Z,21.03
2018-08-09T06:29:44.897Z,21.18
2018-08-09T06:32:15.728Z,21.19
2018-08-09T06:34:46.568Z,21.26
2018-08-09T06:37:17.462Z,21.31
2018-08-09T06:39:48.260Z,21.34
2018-08-09T06:42:19.285Z,21.42
2018-08-09T06:44:50.099Z,21.46
2018-08-09T06:47:20.891Z,21.57
2018-08-09T06:49:51.654Z,21.67
2018-08-09T06:52:22.372Z,21.72
2018-08-09T06:54:53.134Z,21.72
2018-08-09T06:57:23.903Z,21.75
2018-08-09T06:59:54.701Z,21.70
2018-08-09T07:02:25.512Z,21.67
2018-08-09T07:04:56.337Z,21.70
2018-08-09T07:07:27.231Z,21.82
2018-08-09T07:09:57.965Z,21.94
2018-08-09T07:12:28.924Z,22.13
2018-08-09T07:14:59.739Z,22.14
2018-08-09T07:17:30.487Z,22.16
2018-08-09T07:20:01.272Z,22.16
2018-08-09T07:22:32.050Z,22.20
2018-08-09T07:25:02.979Z,22.18
2018-08-09T07:27:33.752Z,22.17
2018-08-09T07:30:05.935Z,22.11
2018-08-09T07:32:36.649Z,22.30
2018-08-09T07:35:08.544Z,22.59
2018-08-09T07:37:39.335Z,22.69
2018-08-09T07:40:12.183Z,22.79
2018-08-09T07:42:43.751Z,22.86
2018-08-09T07:45:14.847Z,22.87
2018-08-09T07:47:48.491Z,22.93
2018-08-09T07:50:19.568Z,23.01
2018-08-09T07:52:50.227Z,23.11
2018-08-09T07:55:20.914Z,23.21
2018-08-09T07:57:51.668Z,23.50
2018-08-09T08:00:22.431Z,23.84
2018-08-09T08:02:53.181Z,24.16
2018-08-09T08:05:23.862Z,24.53
2018-08-09T08:07:55.169Z,24.46
2018-08-09T08:10:25.849Z,24.48
2018-08-09T08:12:56.519Z,24.20
2018-08-09T08:15:27.272Z,24.16
2018-08-09T08:17:57.931Z,24.29
2018-08-09T08:20:28.670Z,24.67
2018-08-09T08:22:59.482Z,24.80
2018-08-09T08:25:30.215Z,24.85
2018-08-09T08:28:00.890Z,24.65
2018-08-09T08:30:31.640Z,24.53
2018-08-09T08:33:02.359Z,24.38
2018-08-09T08:35:33.072Z,24.33
2018-08-09T08:38:03.774Z,24.27
2018-08-09T08:40:34.439Z,24.53
2018-08-09T08:43:07.314Z,25.09
2018-08-09T08:45:38.215Z,25.57
2018-08-09T08:48:08.856Z,26.04
2018-08-09T08:50:39.544Z,26.46
2018-08-09T08:53:10.265Z,26.63
2018-08-09T08:55:40.959Z,26.96
2018-08-09T08:58:11.729Z,27.02
2018-08-09T09:00:42.439Z,26.61
2018-08-09T09:03:13.276Z,26.37
2018-08-09T09:05:43.910Z,25.99
2018-08-09T09:08:14.591Z,25.84
2018-08-09T09:10:45.303Z,25.77
2018-08-09T09:13:17.074Z,25.91
2018-08-09T09:15:47.831Z,26.07
2018-08-09T09:18:18.493Z,26.55
2018-08-09T09:20:49.196Z,26.93
2018-08-09T09:23:19.878Z,27.17
2018-08-09T09:25:50.524Z,27.07
2018-08-09T09:28:21.178Z,26.88
2018-08-09T09:30:51.938Z,27.22
2018-08-09T09:33:22.600Z,27.29
2018-08-09T09:35:53.257Z,27.44
2018-08-09T09:38:23.975Z,27.83
2018-08-09T09:40:54.674Z,28.41
2018-08-09T09:43:25.365Z,28.46
2018-08-09T09:45:56.071Z,28.37
2018-08-09T09:48:26.762Z,28.52
2018-08-09T09:50:57.516Z,28.69
2018-08-09T09:53:28.174Z,28.66
2018-08-09T09:55:58.820Z,28.74
2018-08-09T09:58:29.515Z,29.11
2018-08-09T10:01:05.248Z,29.36
2018-08-09T10:03:35.924Z,29.49
2018-08-09T10:06:06.934Z,29.57
2018-08-09T10:08:37.624Z,29.51
2018-08-09T10:11:08.423Z,29.89
2018-08-09T10:13:39.109Z,29.83
2018-08-09T10:16:09.742Z,30.07
2018-08-09T10:18:40.392Z,30.08
2018-08-09T10:21:11.037Z,30.33
2018-08-09T10:23:41.664Z,30.31
2018-08-09T10:26:12.820Z,30.53
2018-08-09T10:28:43.576Z,30.84
2018-08-09T10:31:14.196Z,30.97
2018-08-09T10:33:44.822Z,31.17
2018-08-09T10:36:15.466Z,31.31
2018-08-09T10:38:46.172Z,31.55
2018-08-09T10:41:16.839Z,31.83
2018-08-09T10:43:47.575Z,32.08
2018-08-09T10:46:18.305Z,32.22
2018-08-09T10:48:48.964Z,32.56
2018-08-09T10:51:19.633Z,32.68
2018-08-09T10:53:50.324Z,32.72
2018-08-09T10:56:21.041Z,32.71
2018-08-09T10:58:52.057Z,32.97
2018-08-09T11:01:22.785Z,32.66
2018-08-09T11:03:54.055Z,32.66
2018-08-09T11:06:24.765Z,32.92
2018-08-09T11:08:55.385Z,33.29
2018-08-09T11:11:26.079Z,33.42
2018-08-09T11:13:57.963Z,33.31
2018-08-09T11:16:28.627Z,33.06
2018-08-09T11:19:00.218Z,32.60
2018-08-09T11:21:30.874Z,32.50
2018-08-09T11:24:01.597Z,32.55
2018-08-09T11:26:32.290Z,32.35
2018-08-09T11:29:02.956Z,32.46
2018-08-09T11:31:33.884Z,32.32
2018-08-09T11:34:05.186Z,32.07
2018-08-09T11:36:35.895Z,32.32
2018-08-09T11:39:12.308Z,32.73
2018-08-09T11:41:42.961Z,32.81
2018-08-09T11:44:13.601Z,32.85
2018-08-09T11:46:44.335Z,32.68
2018-08-09T11:49:14.984Z,32.43
2018-08-09T11:51:45.722Z,32.45
2018-08-09T11:54:17.122Z,32.59
2018-08-09T11:56:47.783Z,32.73
2018-08-09T11:59:18.437Z,32.75
2018-08-09T12:01:49.186Z,32.84
2018-08-09T12:04:19.795Z,32.94
2018-08-09T12:06:50.400Z,32.80
2018-08-09T12:09:21.093Z,32.59
2018-08-09T12:11:51.819Z,32.59
2018-08-09T12:14:22.559Z,32.54
2018-08-09T12:16:53.279Z,32.55
2018-08-09T12:19:23.924Z,32.44
2018-08-09T12:21:54.632Z,32.12
2018-08-09T12:24:25.444Z,31.77
2018-08-09T12:26:56.132Z,31.50
2018-08-09T12:29:26.837Z,31.30
2018-08-09T12:31:57.580Z,31.11
2018-08-09T12:34:28.237Z,30.84
2018-08-09T12:36:58.971Z,30.66
2018-08-09T12:39:29.688Z,30.57
2018-08-09T12:42:00.347Z,30.49
2018-08-09T12:44:31.057Z,30.48
2018-08-09T12:47:01.819Z,30.47
2018-08-09T12:49:32.490Z,30.45
2018-08-09T12:52:03.223Z,30.36
2018-08-09T12:54:33.958Z,30.31
2018-08-09T12:57:05.288Z,30.27
2018-08-09T12:59:36.065Z,30.14
2018-08-09T13:02:06.781Z,30.02
2018-08-09T13:04:37.568Z,30.01
2018-08-09T13:07:08.277Z,30.00
2018-08-09T13:09:39.008Z,30.03
2018-08-09T13:12:09.795Z,30.02
2018-08-09T13:14:40.596Z,29.95
2018-08-09T13:17:11.262Z,29.85
2018-08-09T13:19:42.035Z,29.70
2018-08-09T13:22:12.864Z,29.60
2018-08-09T13:24:43.506Z,29.35
2018-08-09T13:27:14.578Z,29.26
2018-08-09T13:29:45.448Z,29.12
2018-08-09T13:32:16.141Z,28.90
2018-08-09T13:34:46.841Z,27.35
2018-08-09T13:37:17.552Z,24.81
2018-08-09T13:39:48.203Z,23.85
2018-08-09T13:42:18.868Z,23.41
2018-08-09T13:44:49.515Z,23.22
2018-08-09T13:47:20.226Z,23.24
2018-08-09T13:49:50.960Z,23.29
2018-08-09T13:52:21.796Z,23.34
2018-08-09T13:54:52.655Z,23.18
2018-08-09T13:57:23.342Z,23.07
2018-08-09T14:02:23.542Z,22.89
2018-08-09T14:04:54.772Z,22.72
2018-08-09T14:07:25.489Z,22.50
2018-08-09T14:10:00.070Z,22.38
2018-08-09T14:12:30.772Z,22.26
2018-08-09T14:15:01.499Z,22.18
2018-08-09T14:17:32.392Z,22.14
2018-08-09T14:20:05.319Z,22.12
2018-08-09T14:22:36.084Z,22.11
2018-08-09T14:25:07.546Z,22.12
2018-08-09T14:27:38.554Z,22.12
2018-08-09T14:30:12.098Z,22.19
2018-08-09T14:32:43.795Z,22.18
2018-08-09T14:35:16.196Z,22.17
2018-08-09T14:37:47.545Z,22.26
2018-08-09T14:40:18.316Z,22.29
2018-08-09T14:42:48.992Z,22.48
2018-08-09T14:45:19.692Z,22.54
2018-08-09T14:47:50.512Z,22.72
2018-08-09T14:50:21.163Z,22.88
2018-08-09T14:52:51.816Z,23.03
2018-08-09T14:55:22.565Z,23.14
2018-08-09T14:57:53.296Z,23.24
2018-08-09T15:00:23.992Z,23.36
2018-08-09T15:02:54.844Z,23.53
2018-08-09T15:05:25.540Z,23.64
2018-08-09T15:07:56.247Z,23.85
2018-08-09T15:10:26.988Z,24.07
2018-08-09T15:12:57.685Z,24.24
2018-08-09T15:15:28.612Z,24.40
2018-08-09T15:17:59.337Z,24.56
2018-08-09T15:20:30.035Z,24.67
2018-08-09T15:23:00.795Z,24.73
2018-08-09T15:25:31.661Z,24.64
2018-08-09T15:28:03.044Z,24.62
2018-08-09T15:30:35.357Z,24.59
2018-08-09T15:33:06.498Z,24.47
2018-08-09T15:35:37.632Z,24.35
2018-08-09T15:38:08.397Z,24.35
2018-08-09T15:40:39.134Z,24.19
2018-08-09T15:43:10.115Z,24.17
2018-08-09T15:45:40.968Z,24.13
2018-08-09T15:48:11.725Z,24.04
2018-08-09T15:50:42.592Z,24.07
2018-08-09T15:53:15.467Z,24.03
2018-08-09T15:55:46.491Z,24.08
2018-08-09T15:58:17.194Z,24.05
2018-08-09T16:00:50.358Z,24.07
2018-08-09T16:03:21.596Z,24.05
2018-08-09T16:05:52.326Z,24.13
2018-08-09T16:08:23.142Z,24.16
2018-08-09T16:10:56.717Z,24.24
2018-08-09T16:13:27.417Z,24.22
2018-08-09T16:15:58.071Z,24.20
2018-08-09T16:18:28.935Z,24.16
2018-08-09T16:20:59.736Z,24.08
2018-08-09T16:23:30.598Z,24.02
2018-08-09T16:26:01.399Z,23.95
2018-08-09T16:28:32.019Z,23.98
2018-08-09T16:31:02.849Z,23.98
2018-08-09T16:33:33.503Z,24.01
2018-08-09T16:36:04.306Z,23.96
2018-08-09T16:38:35.145Z,24.05
2018-08-09T16:41:05.983Z,23.99
2018-08-09T16:43:36.769Z,24.02
2018-08-09T16:46:08.067Z,23.97
2018-08-09T16:48:38.875Z,24.02
2018-08-09T16:51:09.776Z,24.03
2018-08-09T16:53:40.507Z,23.98
2018-08-09T16:56:11.268Z,24.02
2018-08-09T16:58:42.057Z,24.05
2018-08-09T17:01:12.787Z,24.18
2018-08-09T17:03:43.518Z,24.23
2018-08-09T17:06:14.201Z,24.25
2018-08-09T17:08:44.905Z,24.32
2018-08-09T17:11:15.682Z,24.44
2018-08-09T17:13:46.486Z,24.47
2018-08-09T17:16:17.207Z,24.39
2018-08-09T17:18:47.938Z,24.33
2018-08-09T17:21:18.715Z,24.39
2018-08-09T17:23:49.416Z,24.45
2018-08-09T17:26:20.152Z,24.43
2018-08-09T17:28:50.909Z,24.52
2018-08-09T17:31:21.633Z,24.44
2018-08-09T17:33:52.571Z,24.40
2018-08-09T17:36:23.292Z,24.36
2018-08-09T17:38:54.165Z,24.27
2018-08-09T17:41:25.042Z,24.31
2018-08-09T17:43:55.777Z,24.27
2018-08-09T17:46:26.623Z,24.12
2018-08-09T17:48:57.818Z,24.10
2018-08-09T17:51:28.508Z,24.06
2018-08-09T17:53:59.766Z,24.06
2018-08-09T17:56:30.547Z,24.03
2018-08-09T17:59:01.308Z,23.98
2018-08-09T18:01:32.111Z,24.01
2018-08-09T18:04:02.933Z,23.95
2018-08-09T18:06:34.017Z,24.02
2018-08-09T18:09:07.783Z,23.89
2018-08-09T18:11:38.748Z,23.99
2018-08-09T18:14:09.493Z,23.98
2018-08-09T18:16:40.308Z,23.89
2018-08-09T18:19:11.223Z,23.69
2018-08-09T18:21:41.988Z,23.58
2018-08-09T18:24:12.803Z,23.40
2018-08-09T18:26:43.575Z,23.23
2018-08-09T18:29:14.311Z,22.73
2018-08-09T18:31:45.008Z,22.24
2018-08-09T18:34:15.683Z,21.93
2018-08-09T18:36:46.363Z,21.77
2018-08-09T18:39:17.095Z,21.74
2018-08-09T18:41:47.854Z,21.68
2018-08-09T18:44:18.619Z,21.62
2018-08-09T18:46:49.411Z,21.67
2018-08-09T18:49:20.128Z,21.66
2018-08-09T18:51:50.830Z,21.66
2018-08-09T18:54:21.651Z,21.71
2018-08-09T18:56:52.535Z,21.71
2018-08-09T18:59:23.326Z,21.73
2018-08-09T19:01:54.043Z,21.70
2018-08-09T19:04:24.813Z,21.67
2018-08-09T19:06:55.636Z,21.63
2018-08-09T19:09:26.363Z,21.61
2018-08-09T19:12:00.705Z,21.64
2018-08-09T19:14:33.016Z,21.69
2018-08-09T19:17:03.792Z,21.58
2018-08-09T19:19:35.462Z,21.54
2018-08-09T19:22:06.257Z,21.50
2018-08-09T19:24:37.987Z,21.53
2018-08-09T19:27:08.777Z,21.42
2018-08-09T19:29:39.562Z,21.37
2018-08-09T19:32:10.630Z,21.36
2018-08-09T19:34:41.549Z,21.35
2018-08-09T19:37:12.333Z,21.23
2018-08-09T19:39:43.090Z,21.24
2018-08-09T19:42:13.894Z,21.26
2018-08-09T19:44:44.576Z,21.28
2018-08-09T19:47:15.379Z,21.25
2018-08-09T19:49:46.043Z,21.22
2018-08-09T19:52:16.636Z,21.16
2018-08-09T19:54:47.314Z,21.14
2018-08-09T19:57:18.084Z,21.10
2018-08-09T19:59:48.847Z,21.14
2018-08-09T20:02:19.702Z,21.16
2018-08-09T20:04:50.448Z,21.10
2018-08-09T20:07:21.189Z,20.97
2018-08-09T20:09:52.025Z,20.96
2018-08-09T20:12:22.754Z,20.96
2018-08-09T20:14:53.474Z,20.83
2018-08-09T20:17:24.210Z,20.85
2018-08-09T20:19:54.921Z,20.91
2018-08-09T20:22:25.651Z,20.81
2018-08-09T20:24:56.320Z,20.80
2018-08-09T20:27:26.973Z,20.67
2018-08-09T20:29:57.764Z,20.64
2018-08-09T20:32:28.440Z,20.56
2018-08-09T20:34:59.243Z,20.51
2018-08-09T20:37:29.866Z,20.60
2018-08-09T20:40:00.632Z,20.64
2018-08-09T20:42:31.320Z,20.59
2018-08-09T20:45:01.991Z,20.53
2018-08-09T20:47:32.835Z,20.48
2018-08-09T20:50:03.614Z,20.42
2018-08-09T20:52:34.407Z,20.42
2018-08-09T20:55:06.329Z,20.44
2018-08-09T20:57:37.351Z,20.37
2018-08-09T21:00:15.187Z,20.29
2018-08-09T21:02:47.842Z,20.24
2018-08-09T21:05:25.928Z,20.17
2018-08-09T21:07:57.401Z,20.04
2018-08-09T21:10:28.644Z,19.95
2018-08-09T21:12:59.547Z,19.90
2018-08-09T21:15:30.442Z,19.92
2018-08-09T21:18:01.374Z,19.79
2018-08-09T21:20:32.131Z,19.69
2018-08-09T21:23:02.829Z,19.62
2018-08-09T21:25:33.627Z,19.47
2018-08-09T21:28:04.429Z,19.43
2018-08-09T21:30:35.146Z,19.41
2018-08-09T21:33:06.024Z,19.29
2018-08-09T21:35:36.761Z,19.30
2018-08-09T21:38:07.525Z,19.30
2018-08-09T21:40:38.201Z,19.32
2018-08-09T21:43:08.845Z,19.33
2018-08-09T21:45:39.536Z,19.22
2018-08-09T21:48:10.227Z,19.17
2018-08-09T21:50:41.028Z,19.07
2018-08-09T21:53:11.726Z,18.87
2018-08-09T21:55:42.407Z,18.63
2018-08-09T21:58:13.131Z,18.59
2018-08-09T22:00:52.138Z,18.54
2018-08-09T22:03:26.572Z,18.53
2018-08-09T22:06:02.440Z,18.35
2018-08-09T22:08:38.406Z,18.28
2018-08-09T22:11:16.042Z,18.25
2018-08-09T22:13:52.043Z,18.14
2018-08-09T22:17:31.533Z,18.13
2018-08-09T22:20:07.380Z,18.06
2018-08-09T22:22:38.710Z,18.02
2018-08-09T22:25:10.864Z,18.12
2018-08-09T22:27:41.558Z,18.02
2018-08-09T22:30:16.471Z,17.95
2018-08-09T22:32:47.160Z,17.86
2018-08-09T22:35:17.931Z,17.84
2018-08-09T22:37:48.598Z,17.80
2018-08-09T22:40:19.363Z,17.79
2018-08-09T22:42:50.560Z,17.86
2018-08-09T22:45:21.235Z,17.87
2018-08-09T22:47:52.028Z,17.87
2018-08-09T22:50:22.670Z,17.80
2018-08-09T22:52:54.361Z,17.69
2018-08-09T22:55:25.079Z,17.61
2018-08-09T22:57:55.818Z,17.48
2018-08-09T23:00:26.547Z,17.42
2018-08-09T23:02:57.356Z,17.32
2018-08-09T23:05:28.080Z,17.09
2018-08-09T23:07:58.838Z,17.10
2018-08-09T23:10:29.563Z,16.93
2018-08-09T23:13:00.255Z,16.82
2018-08-09T23:15:30.965Z,16.83
2018-08-09T23:18:01.726Z,16.87
2018-08-09T23:20:32.491Z,16.79
2018-08-09T23:23:03.189Z,16.76
2018-08-09T23:25:34.017Z,16.75
2018-08-09T23:28:04.805Z,16.78
2018-08-09T23:30:35.570Z,16.85
2018-08-09T23:33:06.441Z,16.84
2018-08-09T23:35:37.059Z,16.84
2018-08-09T23:38:07.766Z,16.80
2018-08-09T23:40:38.464Z,16.68
2018-08-09T23:43:09.215Z,16.67
2018-08-09T23:45:39.935Z,16.59
2018-08-09T23:48:10.636Z,16.55
2018-08-09T23:50:41.331Z,16.57
2018-08-09T23:53:12.091Z,16.44
2018-08-09T23:55:42.767Z,16.40
2018-08-09T23:58:13.475Z,16.36
